sensor_id;sensor_type;location;lat;lon;timestamp;P1;durP1;ratioP1;P2;durP2;ratioP2
635;SDS011;302;50.206;8.196;2023-03-01T00:00:34;17.33;;;15.63;;
635;SDS011;302;50.206;8.196;2023-03-01T00:02:59;16.40;;;14.80;;
635;SDS011;302;50.206;8.196;2023-03-01T00:05:24;16.30;;;14.80;;
635;SDS011;302;50.206;8.196;2023-03-01T00:07:52;17.60;;;15.90;;
635;SDS011;302;50.206;8.196;2023-03-01T00:10:17;16.48;;;14.85;;
635;SDS011;302;50.206;8.196;2023-03-01T00:12:42;16.57;;;14.87;;
635;SDS011;302;50.206;8.196;2023-03-01T00:15:08;16.30;;;14.60;;
635;SDS011;302;50.206;8.196;2023-03-01T00:17:33;15.53;;;14.03;;
635;SDS011;302;50.206;8.196;2023-03-01T00:19:58;16.15;;;14.20;;
635;SDS011;302;50.206;8.196;2023-03-01T00:22:23;16.40;;;14.80;;
635;SDS011;302;50.206;8.196;2023-03-01T00:24:48;15.10;;;13.60;;
635;SDS011;302;50.206;8.196;2023-03-01T00:27:13;17.00;;;15.40;;
635;SDS011;302;50.206;8.196;2023-03-01T00:29:39;16.38;;;14.77;;
635;SDS011;302;50.206;8.196;2023-03-01T00:32:04;15.38;;;13.88;;
635;SDS011;302;50.206;8.196;2023-03-01T00:34:29;16.83;;;15.30;;
635;SDS011;302;50.206;8.196;2023-03-01T00:36:54;17.27;;;15.67;;
635;SDS011;302;50.206;8.196;2023-03-01T00:39:19;15.80;;;14.30;;
635;SDS011;302;50.206;8.196;2023-03-01T00:41:44;17.73;;;16.13;;
635;SDS011;302;50.206;8.196;2023-03-01T00:44:10;17.33;;;15.60;;
635;SDS011;302;50.206;8.196;2023-03-01T00:46:35;18.10;;;16.23;;
635;SDS011;302;50.206;8.196;2023-03-01T00:49:00;18.13;;;16.27;;
635;SDS011;302;50.206;8.196;2023-03-01T00:51:27;18.17;;;16.40;;
635;SDS011;302;50.206;8.196;2023-03-01T00:53:53;18.43;;;16.63;;
635;SDS011;302;50.206;8.196;2023-03-01T00:56:19;16.60;;;15.10;;
635;SDS011;302;50.206;8.196;2023-03-01T00:58:44;16.87;;;15.07;;
635;SDS011;302;50.206;8.196;2023-03-01T01:01:10;17.67;;;15.87;;
635;SDS011;302;50.206;8.196;2023-03-01T01:03:42;17.15;;;15.43;;
635;SDS011;302;50.206;8.196;2023-03-01T01:06:12;17.63;;;16.02;;
635;SDS011;302;50.206;8.196;2023-03-01T01:08:37;17.23;;;15.60;;
635;SDS011;302;50.206;8.196;2023-03-01T01:11:02;17.58;;;15.77;;
635;SDS011;302;50.206;8.196;2023-03-01T01:13:28;17.50;;;15.90;;
635;SDS011;302;50.206;8.196;2023-03-01T01:15:53;17.23;;;15.60;;
635;SDS011;302;50.206;8.196;2023-03-01T01:18:18;18.10;;;16.30;;
635;SDS011;302;50.206;8.196;2023-03-01T01:20:43;17.58;;;15.95;;
635;SDS011;302;50.206;8.196;2023-03-01T01:23:08;17.23;;;15.52;;
635;SDS011;302;50.206;8.196;2023-03-01T01:25:34;18.07;;;16.37;;
635;SDS011;302;50.206;8.196;2023-03-01T01:27:59;18.33;;;16.63;;
635;SDS011;302;50.206;8.196;2023-03-01T01:30:25;17.53;;;15.83;;
635;SDS011;302;50.206;8.196;2023-03-01T01:32:50;18.95;;;17.05;;
635;SDS011;302;50.206;8.196;2023-03-01T01:35:15;18.30;;;16.40;;
635;SDS011;302;50.206;8.196;2023-03-01T01:37:40;18.73;;;16.92;;
635;SDS011;302;50.206;8.196;2023-03-01T01:40:05;19.98;;;18.08;;
635;SDS011;302;50.206;8.196;2023-03-01T01:42:31;18.80;;;17.00;;
635;SDS011;302;50.206;8.196;2023-03-01T01:47:40;19.13;;;17.13;;
635;SDS011;302;50.206;8.196;2023-03-01T01:50:08;19.13;;;17.37;;
635;SDS011;302;50.206;8.196;2023-03-01T01:52:35;19.42;;;17.55;;
635;SDS011;302;50.206;8.196;2023-03-01T01:55:08;18.00;;;16.30;;
635;SDS011;302;50.206;8.196;2023-03-01T01:57:37;17.10;;;15.50;;
635;SDS011;302;50.206;8.196;2023-03-01T02:00:05;18.50;;;16.58;;
635;SDS011;302;50.206;8.196;2023-03-01T02:02:31;19.02;;;17.13;;
635;SDS011;302;50.206;8.196;2023-03-01T02:05:03;19.13;;;17.10;;
635;SDS011;302;50.206;8.196;2023-03-01T02:07:35;19.05;;;17.00;;
635;SDS011;302;50.206;8.196;2023-03-01T02:10:01;18.80;;;17.08;;
635;SDS011;302;50.206;8.196;2023-03-01T02:12:27;19.10;;;17.10;;
635;SDS011;302;50.206;8.196;2023-03-01T02:14:52;20.37;;;18.40;;
635;SDS011;302;50.206;8.196;2023-03-01T02:17:17;19.30;;;17.23;;
635;SDS011;302;50.206;8.196;2023-03-01T02:19:52;19.00;;;17.10;;
635;SDS011;302;50.206;8.196;2023-03-01T02:22:27;18.48;;;16.67;;
635;SDS011;302;50.206;8.196;2023-03-01T02:27:21;20.65;;;18.75;;
635;SDS011;302;50.206;8.196;2023-03-01T02:29:49;20.80;;;18.50;;
635;SDS011;302;50.206;8.196;2023-03-01T02:32:14;19.97;;;17.87;;
635;SDS011;302;50.206;8.196;2023-03-01T02:34:41;19.83;;;17.85;;
635;SDS011;302;50.206;8.196;2023-03-01T02:37:11;18.83;;;16.97;;
635;SDS011;302;50.206;8.196;2023-03-01T02:39:45;20.30;;;18.30;;
635;SDS011;302;50.206;8.196;2023-03-01T02:42:17;20.30;;;18.10;;
635;SDS011;302;50.206;8.196;2023-03-01T02:44:43;18.55;;;16.83;;
635;SDS011;302;50.206;8.196;2023-03-01T02:47:09;22.67;;;19.10;;
635;SDS011;302;50.206;8.196;2023-03-01T02:49:35;20.63;;;18.52;;
635;SDS011;302;50.206;8.196;2023-03-01T02:54:46;19.85;;;17.92;;
635;SDS011;302;50.206;8.196;2023-03-01T02:57:13;19.83;;;17.80;;
635;SDS011;302;50.206;8.196;2023-03-01T02:59:39;18.93;;;17.20;;
635;SDS011;302;50.206;8.196;2023-03-01T03:02:17;20.67;;;18.67;;
635;SDS011;302;50.206;8.196;2023-03-01T03:04:45;14.55;;;13.13;;
635;SDS011;302;50.206;8.196;2023-03-01T03:07:10;19.90;;;17.80;;
635;SDS011;302;50.206;8.196;2023-03-01T03:09:35;19.90;;;17.98;;
635;SDS011;302;50.206;8.196;2023-03-01T03:12:00;20.90;;;18.65;;
635;SDS011;302;50.206;8.196;2023-03-01T03:14:25;19.73;;;17.70;;
635;SDS011;302;50.206;8.196;2023-03-01T03:16:50;19.83;;;17.73;;
635;SDS011;302;50.206;8.196;2023-03-01T03:19:16;17.97;;;16.23;;
635;SDS011;302;50.206;8.196;2023-03-01T03:21:41;19.57;;;17.57;;
635;SDS011;302;50.206;8.196;2023-03-01T03:24:07;19.65;;;17.67;;
635;SDS011;302;50.206;8.196;2023-03-01T03:26:32;20.80;;;18.67;;
635;SDS011;302;50.206;8.196;2023-03-01T03:28:57;20.70;;;18.60;;
635;SDS011;302;50.206;8.196;2023-03-01T03:31:23;20.73;;;18.67;;
635;SDS011;302;50.206;8.196;2023-03-01T03:33:48;22.00;;;19.90;;
635;SDS011;302;50.206;8.196;2023-03-01T03:36:17;19.93;;;18.00;;
635;SDS011;302;50.206;8.196;2023-03-01T03:38:42;21.45;;;19.25;;
635;SDS011;302;50.206;8.196;2023-03-01T03:41:08;21.77;;;19.57;;
635;SDS011;302;50.206;8.196;2023-03-01T03:43:34;21.50;;;19.40;;
635;SDS011;302;50.206;8.196;2023-03-01T03:45:59;22.27;;;20.00;;
635;SDS011;302;50.206;8.196;2023-03-01T03:48:25;22.17;;;20.07;;
635;SDS011;302;50.206;8.196;2023-03-01T03:50:51;21.40;;;19.20;;
635;SDS011;302;50.206;8.196;2023-03-01T03:53:17;22.20;;;19.92;;
635;SDS011;302;50.206;8.196;2023-03-01T03:55:42;21.03;;;18.93;;
635;SDS011;302;50.206;8.196;2023-03-01T03:58:09;21.70;;;19.35;;
635;SDS011;302;50.206;8.196;2023-03-01T04:00:35;22.60;;;20.40;;
635;SDS011;302;50.206;8.196;2023-03-01T04:03:01;22.08;;;19.77;;
635;SDS011;302;50.206;8.196;2023-03-01T04:05:26;23.00;;;20.80;;
635;SDS011;302;50.206;8.196;2023-03-01T04:07:51;22.40;;;20.10;;
635;SDS011;302;50.206;8.196;2023-03-01T04:10:26;23.50;;;20.85;;
635;SDS011;302;50.206;8.196;2023-03-01T04:12:51;23.20;;;20.80;;
635;SDS011;302;50.206;8.196;2023-03-01T04:15:17;23.05;;;20.65;;
635;SDS011;302;50.206;8.196;2023-03-01T04:17:43;23.43;;;21.20;;
635;SDS011;302;50.206;8.196;2023-03-01T04:20:09;23.58;;;21.15;;
635;SDS011;302;50.206;8.196;2023-03-01T04:22:35;22.52;;;20.23;;
635;SDS011;302;50.206;8.196;2023-03-01T04:25:01;22.33;;;20.08;;
635;SDS011;302;50.206;8.196;2023-03-01T04:27:31;23.05;;;20.63;;
635;SDS011;302;50.206;8.196;2023-03-01T04:29:56;23.63;;;21.33;;
635;SDS011;302;50.206;8.196;2023-03-01T04:32:21;22.73;;;20.45;;
635;SDS011;302;50.206;8.196;2023-03-01T04:34:46;26.73;;;23.17;;
635;SDS011;302;50.206;8.196;2023-03-01T04:37:11;25.08;;;22.40;;
635;SDS011;302;50.206;8.196;2023-03-01T04:39:36;23.50;;;21.00;;
635;SDS011;302;50.206;8.196;2023-03-01T04:42:10;23.20;;;20.88;;
635;SDS011;302;50.206;8.196;2023-03-01T04:44:35;24.33;;;21.73;;
635;SDS011;302;50.206;8.196;2023-03-01T04:47:00;24.90;;;22.33;;
635;SDS011;302;50.206;8.196;2023-03-01T04:49:25;23.40;;;21.00;;
635;SDS011;302;50.206;8.196;2023-03-01T04:51:50;23.80;;;21.38;;
635;SDS011;302;50.206;8.196;2023-03-01T04:54:15;24.20;;;21.60;;
635;SDS011;302;50.206;8.196;2023-03-01T04:56:41;23.83;;;21.47;;
635;SDS011;302;50.206;8.196;2023-03-01T04:59:06;24.30;;;21.90;;
635;SDS011;302;50.206;8.196;2023-03-01T05:01:33;25.30;;;22.67;;
635;SDS011;302;50.206;8.196;2023-03-01T05:04:00;24.92;;;22.30;;
635;SDS011;302;50.206;8.196;2023-03-01T05:06:27;23.20;;;20.75;;
635;SDS011;302;50.206;8.196;2023-03-01T05:08:53;25.60;;;22.90;;
635;SDS011;302;50.206;8.196;2023-03-01T05:11:18;25.75;;;23.15;;
635;SDS011;302;50.206;8.196;2023-03-01T05:13:43;24.00;;;21.63;;
635;SDS011;302;50.206;8.196;2023-03-01T05:16:08;25.17;;;22.60;;
635;SDS011;302;50.206;8.196;2023-03-01T05:18:36;25.15;;;22.45;;
635;SDS011;302;50.206;8.196;2023-03-01T05:21:12;22.87;;;20.57;;
635;SDS011;302;50.206;8.196;2023-03-01T05:23:37;24.58;;;22.08;;
635;SDS011;302;50.206;8.196;2023-03-01T05:26:03;24.47;;;21.87;;
635;SDS011;302;50.206;8.196;2023-03-01T05:28:29;25.67;;;23.05;;
635;SDS011;302;50.206;8.196;2023-03-01T05:30:54;23.43;;;21.13;;
635;SDS011;302;50.206;8.196;2023-03-01T05:33:20;24.23;;;21.73;;
635;SDS011;302;50.206;8.196;2023-03-01T05:35:47;24.55;;;21.80;;
635;SDS011;302;50.206;8.196;2023-03-01T05:38:13;23.83;;;21.42;;
635;SDS011;302;50.206;8.196;2023-03-01T05:40:39;24.97;;;22.17;;
635;SDS011;302;50.206;8.196;2023-03-01T05:43:04;26.20;;;23.43;;
635;SDS011;302;50.206;8.196;2023-03-01T05:45:30;26.13;;;23.33;;
635;SDS011;302;50.206;8.196;2023-03-01T05:47:57;24.42;;;21.90;;
635;SDS011;302;50.206;8.196;2023-03-01T05:50:23;26.97;;;24.00;;
635;SDS011;302;50.206;8.196;2023-03-01T05:52:51;25.88;;;23.08;;
635;SDS011;302;50.206;8.196;2023-03-01T05:55:17;27.48;;;24.48;;
635;SDS011;302;50.206;8.196;2023-03-01T05:57:42;27.30;;;24.40;;
635;SDS011;302;50.206;8.196;2023-03-01T06:00:08;26.13;;;22.97;;
635;SDS011;302;50.206;8.196;2023-03-01T06:02:34;27.65;;;24.75;;
635;SDS011;302;50.206;8.196;2023-03-01T06:04:59;26.77;;;23.50;;
635;SDS011;302;50.206;8.196;2023-03-01T06:07:24;26.40;;;23.80;;
635;SDS011;302;50.206;8.196;2023-03-01T06:09:49;26.73;;;24.00;;
635;SDS011;302;50.206;8.196;2023-03-01T06:12:14;26.60;;;23.83;;
635;SDS011;302;50.206;8.196;2023-03-01T06:14:39;26.05;;;23.45;;
635;SDS011;302;50.206;8.196;2023-03-01T06:17:04;26.48;;;23.67;;
635;SDS011;302;50.206;8.196;2023-03-01T06:19:30;27.27;;;24.45;;
635;SDS011;302;50.206;8.196;2023-03-01T06:21:55;25.87;;;23.10;;
635;SDS011;302;50.206;8.196;2023-03-01T06:24:20;29.47;;;24.60;;
635;SDS011;302;50.206;8.196;2023-03-01T06:26:45;26.93;;;24.10;;
635;SDS011;302;50.206;8.196;2023-03-01T06:29:10;27.58;;;23.50;;
635;SDS011;302;50.206;8.196;2023-03-01T06:31:35;27.03;;;23.63;;
635;SDS011;302;50.206;8.196;2023-03-01T06:34:01;26.10;;;23.33;;
635;SDS011;302;50.206;8.196;2023-03-01T06:36:26;25.73;;;21.70;;
635;SDS011;302;50.206;8.196;2023-03-01T06:38:51;27.02;;;24.15;;
635;SDS011;302;50.206;8.196;2023-03-01T06:41:16;28.43;;;23.80;;
635;SDS011;302;50.206;8.196;2023-03-01T06:43:41;26.55;;;23.75;;
635;SDS011;302;50.206;8.196;2023-03-01T06:46:06;25.80;;;22.67;;
635;SDS011;302;50.206;8.196;2023-03-01T06:48:32;24.33;;;21.77;;
635;SDS011;302;50.206;8.196;2023-03-01T06:50:58;25.77;;;23.00;;
635;SDS011;302;50.206;8.196;2023-03-01T06:53:23;24.97;;;22.30;;
635;SDS011;302;50.206;8.196;2023-03-01T06:55:53;26.83;;;23.87;;
635;SDS011;302;50.206;8.196;2023-03-01T06:58:18;26.02;;;23.13;;
635;SDS011;302;50.206;8.196;2023-03-01T07:00:43;25.88;;;23.17;;
635;SDS011;302;50.206;8.196;2023-03-01T07:03:09;25.53;;;22.77;;
635;SDS011;302;50.206;8.196;2023-03-01T07:05:34;25.73;;;22.85;;
635;SDS011;302;50.206;8.196;2023-03-01T07:07:59;28.47;;;25.43;;
635;SDS011;302;50.206;8.196;2023-03-01T07:10:24;37.08;;;33.28;;
635;SDS011;302;50.206;8.196;2023-03-01T07:12:49;38.27;;;33.83;;
635;SDS011;302;50.206;8.196;2023-03-01T07:15:15;43.00;;;38.40;;
635;SDS011;302;50.206;8.196;2023-03-01T07:17:40;49.00;;;42.77;;
635;SDS011;302;50.206;8.196;2023-03-01T07:20:05;43.40;;;38.90;;
635;SDS011;302;50.206;8.196;2023-03-01T07:22:30;34.73;;;31.13;;
635;SDS011;302;50.206;8.196;2023-03-01T07:24:56;30.37;;;27.17;;
635;SDS011;302;50.206;8.196;2023-03-01T07:27:21;29.52;;;26.42;;
635;SDS011;302;50.206;8.196;2023-03-01T07:29:46;28.92;;;25.02;;
635;SDS011;302;50.206;8.196;2023-03-01T07:32:11;25.55;;;22.95;;
635;SDS011;302;50.206;8.196;2023-03-01T07:34:37;25.80;;;23.00;;
635;SDS011;302;50.206;8.196;2023-03-01T07:37:02;28.67;;;25.60;;
635;SDS011;302;50.206;8.196;2023-03-01T07:39:27;29.07;;;25.33;;
635;SDS011;302;50.206;8.196;2023-03-01T07:41:52;24.80;;;22.30;;
635;SDS011;302;50.206;8.196;2023-03-01T07:44:17;26.75;;;23.73;;
635;SDS011;302;50.206;8.196;2023-03-01T07:46:43;27.10;;;22.60;;
635;SDS011;302;50.206;8.196;2023-03-01T07:49:09;25.35;;;22.65;;
635;SDS011;302;50.206;8.196;2023-03-01T07:51:34;24.07;;;21.57;;
635;SDS011;302;50.206;8.196;2023-03-01T07:53:59;21.88;;;19.58;;
635;SDS011;302;50.206;8.196;2023-03-01T07:56:24;21.58;;;19.38;;
635;SDS011;302;50.206;8.196;2023-03-01T07:58:49;21.80;;;19.60;;
635;SDS011;302;50.206;8.196;2023-03-01T08:01:15;20.37;;;18.27;;
635;SDS011;302;50.206;8.196;2023-03-01T08:03:41;22.48;;;20.38;;
635;SDS011;302;50.206;8.196;2023-03-01T08:06:08;21.27;;;19.13;;
635;SDS011;302;50.206;8.196;2023-03-01T08:08:34;20.93;;;18.87;;
635;SDS011;302;50.206;8.196;2023-03-01T08:11:00;21.83;;;19.50;;
635;SDS011;302;50.206;8.196;2023-03-01T08:13:25;20.75;;;18.70;;
635;SDS011;302;50.206;8.196;2023-03-01T08:15:51;19.63;;;17.63;;
635;SDS011;302;50.206;8.196;2023-03-01T08:18:17;21.80;;;19.70;;
635;SDS011;302;50.206;8.196;2023-03-01T08:20:42;21.90;;;19.57;;
635;SDS011;302;50.206;8.196;2023-03-01T08:23:07;20.65;;;18.63;;
635;SDS011;302;50.206;8.196;2023-03-01T08:25:32;21.30;;;18.02;;
635;SDS011;302;50.206;8.196;2023-03-01T08:27:57;21.83;;;19.63;;
635;SDS011;302;50.206;8.196;2023-03-01T08:30:23;23.38;;;20.50;;
635;SDS011;302;50.206;8.196;2023-03-01T08:32:49;21.33;;;18.90;;
635;SDS011;302;50.206;8.196;2023-03-01T08:35:14;21.17;;;19.07;;
635;SDS011;302;50.206;8.196;2023-03-01T08:37:39;21.40;;;19.20;;
635;SDS011;302;50.206;8.196;2023-03-01T08:40:05;23.08;;;20.58;;
635;SDS011;302;50.206;8.196;2023-03-01T08:42:34;21.63;;;19.30;;
635;SDS011;302;50.206;8.196;2023-03-01T08:45:00;21.70;;;18.87;;
635;SDS011;302;50.206;8.196;2023-03-01T08:47:25;21.35;;;19.00;;
635;SDS011;302;50.206;8.196;2023-03-01T08:49:51;20.40;;;18.40;;
635;SDS011;302;50.206;8.196;2023-03-01T08:52:16;18.47;;;15.10;;
635;SDS011;302;50.206;8.196;2023-03-01T08:54:41;20.97;;;18.77;;
635;SDS011;302;50.206;8.196;2023-03-01T08:57:06;20.83;;;18.63;;
635;SDS011;302;50.206;8.196;2023-03-01T08:59:32;22.17;;;20.00;;
635;SDS011;302;50.206;8.196;2023-03-01T09:02:02;21.90;;;19.60;;
635;SDS011;302;50.206;8.196;2023-03-01T09:04:27;20.97;;;18.80;;
635;SDS011;302;50.206;8.196;2023-03-01T09:06:52;21.00;;;18.90;;
635;SDS011;302;50.206;8.196;2023-03-01T09:09:17;20.30;;;18.30;;
635;SDS011;302;50.206;8.196;2023-03-01T09:11:43;22.27;;;19.87;;
635;SDS011;302;50.206;8.196;2023-03-01T09:14:08;21.58;;;19.25;;
635;SDS011;302;50.206;8.196;2023-03-01T09:16:33;20.10;;;18.10;;
635;SDS011;302;50.206;8.196;2023-03-01T09:19:00;20.50;;;18.38;;
635;SDS011;302;50.206;8.196;2023-03-01T09:21:26;22.27;;;19.93;;
635;SDS011;302;50.206;8.196;2023-03-01T09:23:51;20.77;;;18.67;;
635;SDS011;302;50.206;8.196;2023-03-01T09:26:20;21.50;;;19.30;;
635;SDS011;302;50.206;8.196;2023-03-01T09:28:47;20.73;;;18.77;;
635;SDS011;302;50.206;8.196;2023-03-01T09:31:12;21.60;;;19.40;;
635;SDS011;302;50.206;8.196;2023-03-01T09:33:38;21.65;;;19.45;;
635;SDS011;302;50.206;8.196;2023-03-01T09:36:04;21.40;;;19.20;;
635;SDS011;302;50.206;8.196;2023-03-01T09:38:30;21.25;;;19.05;;
635;SDS011;302;50.206;8.196;2023-03-01T09:40:55;20.23;;;18.20;;
635;SDS011;302;50.206;8.196;2023-03-01T09:43:25;21.73;;;19.47;;
635;SDS011;302;50.206;8.196;2023-03-01T09:45:52;22.50;;;19.65;;
635;SDS011;302;50.206;8.196;2023-03-01T09:48:20;21.00;;;18.90;;
635;SDS011;302;50.206;8.196;2023-03-01T09:50:47;21.27;;;18.67;;
635;SDS011;302;50.206;8.196;2023-03-01T09:53:13;20.80;;;18.60;;
635;SDS011;302;50.206;8.196;2023-03-01T09:55:43;21.58;;;19.45;;
635;SDS011;302;50.206;8.196;2023-03-01T09:58:24;21.75;;;19.42;;
635;SDS011;302;50.206;8.196;2023-03-01T10:00:54;21.65;;;19.35;;
635;SDS011;302;50.206;8.196;2023-03-01T10:03:39;20.67;;;18.67;;
635;SDS011;302;50.206;8.196;2023-03-01T10:06:14;21.10;;;18.90;;
635;SDS011;302;50.206;8.196;2023-03-01T10:11:24;20.30;;;18.40;;
635;SDS011;302;50.206;8.196;2023-03-01T10:16:46;20.58;;;18.50;;
635;SDS011;302;50.206;8.196;2023-03-01T10:22:13;19.98;;;17.95;;
635;SDS011;302;50.206;8.196;2023-03-01T10:24:38;22.73;;;20.35;;
635;SDS011;302;50.206;8.196;2023-03-01T10:27:13;19.90;;;18.00;;
635;SDS011;302;50.206;8.196;2023-03-01T10:32:24;20.48;;;18.58;;
635;SDS011;302;50.206;8.196;2023-03-01T10:34:49;19.43;;;17.63;;
635;SDS011;302;50.206;8.196;2023-03-01T10:37:18;18.57;;;16.63;;
635;SDS011;302;50.206;8.196;2023-03-01T10:42:27;19.02;;;17.08;;
635;SDS011;302;50.206;8.196;2023-03-01T10:44:53;20.13;;;18.08;;
635;SDS011;302;50.206;8.196;2023-03-01T10:47:20;19.43;;;17.63;;
635;SDS011;302;50.206;8.196;2023-03-01T10:49:53;18.90;;;17.10;;
635;SDS011;302;50.206;8.196;2023-03-01T10:52:19;20.70;;;18.70;;
635;SDS011;302;50.206;8.196;2023-03-01T10:54:51;18.50;;;16.77;;
635;SDS011;302;50.206;8.196;2023-03-01T10:57:27;18.90;;;17.08;;
635;SDS011;302;50.206;8.196;2023-03-01T11:00:00;19.63;;;17.60;;
635;SDS011;302;50.206;8.196;2023-03-01T11:02:29;18.00;;;16.30;;
635;SDS011;302;50.206;8.196;2023-03-01T11:05:02;16.85;;;15.18;;
635;SDS011;302;50.206;8.196;2023-03-01T11:07:27;19.23;;;17.33;;
635;SDS011;302;50.206;8.196;2023-03-01T11:09:52;18.47;;;16.57;;
635;SDS011;302;50.206;8.196;2023-03-01T11:12:17;19.13;;;17.23;;
635;SDS011;302;50.206;8.196;2023-03-01T11:14:50;19.30;;;17.43;;
635;SDS011;302;50.206;8.196;2023-03-01T11:19:40;18.50;;;16.63;;
635;SDS011;302;50.206;8.196;2023-03-01T11:22:26;18.40;;;16.50;;
635;SDS011;302;50.206;8.196;2023-03-01T11:24:51;18.23;;;16.52;;
635;SDS011;302;50.206;8.196;2023-03-01T11:27:19;18.40;;;16.60;;
635;SDS011;302;50.206;8.196;2023-03-01T11:30:01;17.98;;;16.17;;
635;SDS011;302;50.206;8.196;2023-03-01T11:32:29;17.55;;;15.85;;
635;SDS011;302;50.206;8.196;2023-03-01T11:35:02;17.80;;;16.13;;
635;SDS011;302;50.206;8.196;2023-03-01T11:37:33;17.08;;;15.38;;
635;SDS011;302;50.206;8.196;2023-03-01T11:40:05;16.13;;;14.60;;
635;SDS011;302;50.206;8.196;2023-03-01T11:42:37;15.93;;;14.43;;
635;SDS011;302;50.206;8.196;2023-03-01T11:45:09;16.05;;;14.55;;
635;SDS011;302;50.206;8.196;2023-03-01T11:50:08;14.98;;;13.55;;
635;SDS011;302;50.206;8.196;2023-03-01T11:55:29;15.18;;;13.77;;
635;SDS011;302;50.206;8.196;2023-03-01T12:03:28;14.15;;;12.80;;
635;SDS011;302;50.206;8.196;2023-03-01T12:05:59;14.00;;;12.60;;
635;SDS011;302;50.206;8.196;2023-03-01T12:13:36;13.65;;;12.32;;
635;SDS011;302;50.206;8.196;2023-03-01T12:19:07;13.88;;;12.57;;
635;SDS011;302;50.206;8.196;2023-03-01T12:26:59;12.70;;;11.45;;
635;SDS011;302;50.206;8.196;2023-03-01T12:29:38;13.18;;;11.88;;
635;SDS011;302;50.206;8.196;2023-03-01T12:32:15;13.15;;;11.80;;
635;SDS011;302;50.206;8.196;2023-03-01T12:34:48;12.30;;;11.20;;
635;SDS011;302;50.206;8.196;2023-03-01T12:42:27;13.50;;;12.20;;
635;SDS011;302;50.206;8.196;2023-03-01T12:44:58;13.80;;;12.45;;
635;SDS011;302;50.206;8.196;2023-03-01T12:49:54;12.85;;;11.65;;
635;SDS011;302;50.206;8.196;2023-03-01T12:52:25;15.30;;;13.70;;
635;SDS011;302;50.206;8.196;2023-03-01T12:54:52;15.00;;;13.60;;
635;SDS011;302;50.206;8.196;2023-03-01T12:57:21;12.77;;;11.68;;
635;SDS011;302;50.206;8.196;2023-03-01T13:00:01;13.52;;;12.10;;
635;SDS011;302;50.206;8.196;2023-03-01T13:05:06;12.98;;;11.77;;
635;SDS011;302;50.206;8.196;2023-03-01T13:10:11;14.13;;;12.93;;
635;SDS011;302;50.206;8.196;2023-03-01T13:17:56;13.57;;;12.27;;
635;SDS011;302;50.206;8.196;2023-03-01T13:20:32;14.50;;;13.10;;
635;SDS011;302;50.206;8.196;2023-03-01T13:23:08;13.70;;;12.40;;
635;SDS011;302;50.206;8.196;2023-03-01T13:25:35;12.88;;;11.75;;
635;SDS011;302;50.206;8.196;2023-03-01T13:31:01;13.60;;;12.40;;
635;SDS011;302;50.206;8.196;2023-03-01T13:35:52;14.00;;;12.60;;
635;SDS011;302;50.206;8.196;2023-03-01T13:41:02;13.63;;;12.32;;
635;SDS011;302;50.206;8.196;2023-03-01T13:43:29;14.10;;;12.83;;
635;SDS011;302;50.206;8.196;2023-03-01T13:45:55;13.20;;;12.00;;
635;SDS011;302;50.206;8.196;2023-03-01T13:48:25;13.47;;;12.27;;
635;SDS011;302;50.206;8.196;2023-03-01T13:50:51;13.00;;;11.75;;
635;SDS011;302;50.206;8.196;2023-03-01T13:53:18;13.45;;;12.20;;
635;SDS011;302;50.206;8.196;2023-03-01T13:55:45;12.60;;;11.35;;
635;SDS011;302;50.206;8.196;2023-03-01T14:00:42;12.30;;;11.13;;
635;SDS011;302;50.206;8.196;2023-03-01T14:03:17;12.90;;;11.67;;
635;SDS011;302;50.206;8.196;2023-03-01T14:05:50;12.40;;;11.37;;
635;SDS011;302;50.206;8.196;2023-03-01T14:08:23;11.60;;;10.60;;
635;SDS011;302;50.206;8.196;2023-03-01T14:11:17;12.10;;;10.97;;
635;SDS011;302;50.206;8.196;2023-03-01T14:16:31;13.50;;;11.90;;
635;SDS011;302;50.206;8.196;2023-03-01T14:21:30;12.27;;;11.17;;
635;SDS011;302;50.206;8.196;2023-03-01T14:23:55;13.40;;;12.10;;
635;SDS011;302;50.206;8.196;2023-03-01T14:26:22;12.80;;;11.70;;
635;SDS011;302;50.206;8.196;2023-03-01T14:28:47;13.90;;;12.60;;
635;SDS011;302;50.206;8.196;2023-03-01T14:31:32;11.87;;;10.77;;
635;SDS011;302;50.206;8.196;2023-03-01T14:33:59;11.73;;;10.63;;
635;SDS011;302;50.206;8.196;2023-03-01T14:36:30;14.10;;;12.77;;
635;SDS011;302;50.206;8.196;2023-03-01T14:38:55;12.93;;;11.10;;
635;SDS011;302;50.206;8.196;2023-03-01T14:41:24;13.83;;;12.70;;
635;SDS011;302;50.206;8.196;2023-03-01T14:43:55;12.63;;;11.57;;
635;SDS011;302;50.206;8.196;2023-03-01T14:46:30;13.30;;;12.07;;
635;SDS011;302;50.206;8.196;2023-03-01T14:48:58;15.60;;;12.00;;
635;SDS011;302;50.206;8.196;2023-03-01T14:51:25;12.27;;;11.10;;
635;SDS011;302;50.206;8.196;2023-03-01T14:53:51;12.83;;;11.73;;
635;SDS011;302;50.206;8.196;2023-03-01T14:56:16;13.23;;;11.80;;
635;SDS011;302;50.206;8.196;2023-03-01T14:58:45;12.53;;;11.27;;
635;SDS011;302;50.206;8.196;2023-03-01T15:01:13;11.67;;;10.47;;
635;SDS011;302;50.206;8.196;2023-03-01T15:03:43;11.77;;;10.67;;
635;SDS011;302;50.206;8.196;2023-03-01T15:06:09;12.70;;;11.43;;
635;SDS011;302;50.206;8.196;2023-03-01T15:08:37;11.30;;;10.33;;
635;SDS011;302;50.206;8.196;2023-03-01T15:11:17;12.17;;;11.07;;
635;SDS011;302;50.206;8.196;2023-03-01T15:13:43;13.93;;;11.43;;
635;SDS011;302;50.206;8.196;2023-03-01T15:16:27;12.10;;;11.10;;
635;SDS011;302;50.206;8.196;2023-03-01T15:18:54;12.50;;;11.43;;
635;SDS011;302;50.206;8.196;2023-03-01T15:21:21;11.70;;;10.70;;
635;SDS011;302;50.206;8.196;2023-03-01T15:23:51;11.57;;;10.57;;
635;SDS011;302;50.206;8.196;2023-03-01T15:26:21;12.37;;;11.17;;
635;SDS011;302;50.206;8.196;2023-03-01T15:28:49;10.37;;;9.57;;
635;SDS011;302;50.206;8.196;2023-03-01T15:31:19;11.57;;;10.40;;
635;SDS011;302;50.206;8.196;2023-03-01T15:33:45;11.77;;;10.67;;
635;SDS011;302;50.206;8.196;2023-03-01T15:36:55;12.13;;;11.13;;
635;SDS011;302;50.206;8.196;2023-03-01T15:39:01;11.73;;;10.60;;
635;SDS011;302;50.206;8.196;2023-03-01T15:41:30;12.07;;;10.93;;
635;SDS011;302;50.206;8.196;2023-03-01T15:43:56;12.73;;;11.00;;
635;SDS011;302;50.206;8.196;2023-03-01T15:46:22;11.10;;;10.10;;
635;SDS011;302;50.206;8.196;2023-03-01T15:48:50;12.73;;;11.53;;
635;SDS011;302;50.206;8.196;2023-03-01T15:51:17;12.10;;;10.90;;
635;SDS011;302;50.206;8.196;2023-03-01T15:53:43;11.50;;;10.40;;
635;SDS011;302;50.206;8.196;2023-03-01T15:56:11;11.90;;;10.83;;
635;SDS011;302;50.206;8.196;2023-03-01T15:58:36;11.52;;;10.57;;
635;SDS011;302;50.206;8.196;2023-03-01T16:01:02;11.60;;;10.50;;
635;SDS011;302;50.206;8.196;2023-03-01T16:03:27;11.17;;;10.20;;
635;SDS011;302;50.206;8.196;2023-03-01T16:05:52;12.00;;;10.80;;
635;SDS011;302;50.206;8.196;2023-03-01T16:08:18;11.77;;;10.67;;
635;SDS011;302;50.206;8.196;2023-03-01T16:10:44;10.80;;;9.70;;
635;SDS011;302;50.206;8.196;2023-03-01T16:13:09;11.47;;;10.03;;
635;SDS011;302;50.206;8.196;2023-03-01T16:15:35;11.53;;;10.53;;
635;SDS011;302;50.206;8.196;2023-03-01T16:18:00;12.03;;;10.80;;
635;SDS011;302;50.206;8.196;2023-03-01T16:20:26;11.33;;;10.20;;
635;SDS011;302;50.206;8.196;2023-03-01T16:22:51;12.20;;;11.10;;
635;SDS011;302;50.206;8.196;2023-03-01T16:25:17;13.07;;;11.77;;
635;SDS011;302;50.206;8.196;2023-03-01T16:27:43;11.43;;;10.43;;
635;SDS011;302;50.206;8.196;2023-03-01T16:30:09;12.05;;;10.80;;
635;SDS011;302;50.206;8.196;2023-03-01T16:32:41;11.70;;;10.60;;
635;SDS011;302;50.206;8.196;2023-03-01T16:35:06;10.13;;;9.23;;
635;SDS011;302;50.206;8.196;2023-03-01T16:37:32;11.23;;;10.13;;